Time;durP1;ratioP1;P1;durP2;ratioP2;P2;SDS_P1;SDS_P2;PMS_P1;PMS_P2;Temp;Humidity;BMP_temperature;BMP_pressure;BME280_temperature;BME280_humidity;BME280_pressure;Samples;Min_cycle;Max_cycle;Signal;HPM_P1;HPM_P2
2021/03/16 00:01:11;;;;;;;12.73;5.18;;;6.20;99.90;;;;;;4875999;29;21047;-76
2021/03/16 00:03:51;;;;;;;12.73;3.72;;;6.30;99.90;;;;;;4875722;29;20230;-76
2021/03/16 00:06:31;;;;;;;11.65;4.90;;;6.30;99.90;;;;;;4873117;29;20276;-76
2021/03/16 00:08:57;;;;;;;13.77;5.10;;;6.30;99.90;;;;;;4867400;29;20195;-76
2021/03/16 00:11:23;;;;;;;10.32;4.35;;;6.30;99.90;;;;;;4864569;29;20203;-76
2021/03/16 00:13:53;;;;;;;8.65;3.63;;;6.30;99.90;;;;;;4858203;29;20227;-76
2021/03/16 00:16:19;;;;;;;13.52;3.85;;;6.30;99.90;;;;;;4869685;29;20281;-76
2021/03/16 00:18:46;;;;;;;11.13;4.35;;;6.30;99.90;;;;;;4859273;29;20638;-76
2021/03/16 00:21:13;;;;;;;9.70;3.20;;;6.30;99.90;;;;;;4877229;29;20198;-76
2021/03/16 00:23:39;;;;;;;15.27;3.97;;;6.30;99.90;;;;;;4867262;29;20266;-76
2021/03/16 00:26:07;;;;;;;26.85;6.38;;;6.30;99.90;;;;;;4868838;29;20211;-76
2021/03/16 00:28:33;;;;;;;10.98;4.97;;;6.30;99.90;;;;;;4862358;29;20275;-76
2021/03/16 00:31:00;;;;;;;12.27;4.45;;;6.30;99.90;;;;;;4871752;29;20199;-76
2021/03/16 00:33:27;;;;;;;14.73;4.68;;;6.30;99.90;;;;;;4871375;29;20321;-76
2021/03/16 00:35:54;;;;;;;12.20;3.97;;;6.30;99.90;;;;;;4873292;29;20213;-76
2021/03/16 00:38:21;;;;;;;17.45;4.13;;;6.30;99.90;;;;;;4866157;29;20341;-76
2021/03/16 00:40:51;;;;;;;7.55;4.75;;;6.30;99.90;;;;;;4866129;29;20274;-76
2021/03/16 00:43:18;;;;;;;11.75;3.80;;;6.30;99.90;;;;;;4861283;29;20232;-76
2021/03/16 00:45:44;;;;;;;10.20;4.13;;;6.30;99.90;;;;;;4872622;29;20215;-76
2021/03/16 00:48:18;;;;;;;9.10;4.20;;;6.30;99.90;;;;;;4872949;29;20222;-76
2021/03/16 00:50:50;;;;;;;11.27;4.70;;;6.20;99.90;;;;;;4859637;29;20198;-76
2021/03/16 00:53:16;;;;;;;18.75;7.07;;;6.30;99.90;;;;;;4863931;29;20323;-76
2021/03/16 00:55:47;;;;;;;14.25;3.90;;;6.30;99.90;;;;;;4870933;29;20619;-76
2021/03/16 00:58:13;;;;;;;10.38;4.63;;;6.30;99.90;;;;;;4857452;29;20533;-76
2021/03/16 01:00:40;;;;;;;12.38;5.25;;;6.30;99.90;;;;;;4856771;29;20188;-76
2021/03/16 01:03:07;;;;;;;18.45;4.70;;;6.30;99.90;;;;;;4857114;29;20226;-76
2021/03/16 01:05:34;;;;;;;16.92;4.68;;;6.30;99.90;;;;;;4872208;29;20285;-76
2021/03/16 01:08:00;;;;;;;13.38;4.80;;;6.20;99.90;;;;;;4871291;29;20226;-76
2021/03/16 01:10:29;;;;;;;11.93;4.35;;;6.20;99.90;;;;;;4875218;29;20282;-76
2021/03/16 01:12:58;;;;;;;9.63;3.83;;;6.20;99.90;;;;;;4858735;29;20631;-76
2021/03/16 01:15:25;;;;;;;14.95;5.25;;;6.20;99.90;;;;;;4857375;29;20210;-76
2021/03/16 01:17:51;;;;;;;17.85;5.07;;;6.10;99.90;;;;;;4865557;29;20267;-76
2021/03/16 01:20:21;;;;;;;16.25;5.20;;;6.20;99.90;;;;;;4871509;29;20270;-76
2021/03/16 01:22:48;;;;;;;10.60;3.80;;;6.20;99.90;;;;;;4864032;29;20254;-76
2021/03/16 01:25:14;;;;;;;11.80;4.57;;;6.20;99.90;;;;;;4863904;29;20203;-76
2021/03/16 01:27:41;;;;;;;19.25;4.43;;;6.20;99.90;;;;;;4858195;29;20246;-76
2021/03/16 01:30:13;;;;;;;17.52;4.35;;;6.20;99.90;;;;;;4869605;29;20196;-76
2021/03/16 01:32:39;;;;;;;9.43;3.97;;;6.10;99.90;;;;;;4874833;29;20333;-76
2021/03/16 01:35:09;;;;;;;16.73;5.30;;;6.20;99.90;;;;;;4864721;29;20214;-76
2021/03/16 01:37:37;;;;;;;12.45;5.40;;;6.20;99.90;;;;;;4855942;29;20284;-77
2021/03/16 01:40:29;;;;;;;16.17;6.22;;;6.20;99.90;;;;;;4866614;29;20273;-77
2021/03/16 01:43:10;;;;;;;7.63;4.57;;;6.20;99.90;;;;;;4854520;29;20298;-78
2021/03/16 01:45:37;;;;;;;19.20;6.53;;;6.10;99.90;;;;;;4859525;29;20267;-78
2021/03/16 01:48:05;;;;;;;12.35;4.78;;;6.10;99.90;;;;;;4858212;29;20778;-78
2021/03/16 01:50:32;;;;;;;9.70;4.30;;;6.10;99.90;;;;;;4861130;29;20294;-78
2021/03/16 01:52:59;;;;;;;10.55;5.38;;;6.00;99.90;;;;;;4864546;29;20563;-78
2021/03/16 01:55:28;;;;;;;12.27;5.30;;;6.00;99.90;;;;;;4868418;29;20283;-78
2021/03/16 01:57:55;;;;;;;14.35;4.50;;;6.00;99.90;;;;;;4869872;29;20306;-78
2021/03/16 02:00:42;;;;;;;12.38;4.70;;;6.00;99.90;;;;;;4873669;29;20206;-78
2021/03/16 02:03:28;;;;;;;16.65;4.80;;;6.00;99.90;;;;;;4869340;29;20592;-77
2021/03/16 02:06:22;;;;;;;19.20;5.55;;;6.00;99.90;;;;;;4860720;29;20282;-78
2021/03/16 02:09:17;;;;;;;14.52;4.22;;;6.00;99.90;;;;;;4856532;29;20245;-77
2021/03/16 02:12:14;;;;;;;14.85;3.67;;;6.00;99.90;;;;;;4856441;29;20336;-77
2021/03/16 02:15:11;;;;;;;13.07;3.65;;;6.00;99.90;;;;;;4851072;29;20359;-77
2021/03/16 02:18:01;;;;;;;10.82;3.80;;;6.00;99.90;;;;;;4857277;29;20233;-77
2021/03/16 02:20:46;;;;;;;13.23;4.68;;;6.00;99.90;;;;;;4857554;29;20559;-77
2021/03/16 02:23:56;;;;;;;16.02;4.60;;;6.00;99.90;;;;;;4864318;29;20225;-78
2021/03/16 02:27:22;;;;;;;8.07;3.88;;;6.00;99.90;;;;;;4863295;29;20738;-77
2021/03/16 02:30:09;;;;;;;12.43;4.55;;;6.00;99.90;;;;;;4863149;29;20209;-77
2021/03/16 02:32:56;;;;;;;14.88;4.22;;;6.00;99.90;;;;;;4863489;29;20233;-77
2021/03/16 02:35:45;;;;;;;13.63;3.60;;;6.00;99.90;;;;;;4866996;29;20379;-77
2021/03/16 02:38:32;;;;;;;15.98;4.65;;;6.10;99.90;;;;;;4861708;29;20225;-77
2021/03/16 02:41:19;;;;;;;12.43;4.22;;;6.10;99.90;;;;;;4872439;29;20189;-77
2021/03/16 02:44:06;;;;;;;12.10;4.30;;;6.10;99.90;;;;;;4858620;29;20241;-77
2021/03/16 02:46:52;;;;;;;20.02;5.18;;;6.10;99.90;;;;;;4866017;29;20369;-77
2021/03/16 02:49:42;;;;;;;10.65;3.30;;;6.10;99.90;;;;;;4868887;29;20334;-77
2021/03/16 02:52:27;;;;;;;10.68;4.03;;;6.10;99.90;;;;;;4855540;29;20221;-77
2021/03/16 02:55:13;;;;;;;13.63;3.55;;;6.00;99.90;;;;;;4874009;29;20258;-77
2021/03/16 02:57:59;;;;;;;7.47;2.60;;;6.00;99.90;;;;;;4857760;29;20222;-77
2021/03/16 03:00:46;;;;;;;11.20;4.28;;;6.00;99.90;;;;;;4873208;29;20332;-77
2021/03/16 03:03:34;;;;;;;14.93;3.08;;;6.00;99.90;;;;;;4865287;29;20600;-77
2021/03/16 03:06:21;;;;;;;11.50;3.08;;;6.10;99.90;;;;;;4865391;29;20202;-76
2021/03/16 03:09:09;;;;;;;15.32;3.80;;;6.10;99.90;;;;;;4873287;29;20234;-77
2021/03/16 03:11:54;;;;;;;11.52;3.80;;;6.00;99.90;;;;;;4872348;29;20225;-77
2021/03/16 03:14:39;;;;;;;13.35;3.42;;;6.10;99.90;;;;;;4859563;29;20222;-77
2021/03/16 03:17:26;;;;;;;20.70;3.70;;;6.00;99.90;;;;;;4871243;29;20218;-77
2021/03/16 03:20:13;;;;;;;17.40;4.00;;;6.00;99.90;;;;;;4864881;29;20205;-77
2021/03/16 03:23:09;;;;;;;14.93;3.13;;;6.00;99.90;;;;;;4874088;29;20267;-77
2021/03/16 03:26:01;;;;;;;8.05;3.80;;;5.90;99.90;;;;;;4868460;29;20250;-77
2021/03/16 03:28:48;;;;;;;13.93;3.78;;;6.00;99.90;;;;;;4860402;29;20230;-77
2021/03/16 03:31:34;;;;;;;12.45;4.05;;;6.00;99.90;;;;;;4864891;29;20557;-77
2021/03/16 03:34:20;;;;;;;15.23;3.95;;;6.00;99.90;;;;;;4880889;29;20233;-77
2021/03/16 03:37:07;;;;;;;11.07;4.20;;;6.00;99.90;;;;;;4862992;29;20218;-77
2021/03/16 03:39:53;;;;;;;15.73;3.60;;;5.90;99.90;;;;;;4869826;29;20201;-76
2021/03/16 03:42:40;;;;;;;14.07;4.10;;;5.90;99.90;;;;;;4873726;29;20238;-77
2021/03/16 03:45:27;;;;;;;8.18;3.60;;;6.00;99.90;;;;;;4868304;29;20282;-77
2021/03/16 03:48:13;;;;;;;14.70;5.03;;;5.90;99.90;;;;;;4880375;29;20277;-77
2021/03/16 03:51:00;;;;;;;9.45;3.60;;;5.90;99.90;;;;;;4863306;29;20213;-76
2021/03/16 03:53:46;;;;;;;11.60;3.65;;;6.00;99.90;;;;;;4871082;29;20225;-77
2021/03/16 03:56:36;;;;;;;8.00;5.10;;;6.00;99.90;;;;;;4875362;29;20217;-77
2021/03/16 03:59:24;;;;;;;14.90;3.85;;;6.00;99.90;;;;;;4871205;29;20206;-77
2021/03/16 04:02:10;;;;;;;16.75;3.85;;;6.00;99.90;;;;;;4869058;29;20233;-77
2021/03/16 04:04:56;;;;;;;11.25;4.45;;;6.00;99.90;;;;;;4866170;29;20218;-77
2021/03/16 04:07:42;;;;;;;28.15;5.07;;;6.00;99.90;;;;;;4877416;29;20229;-76
2021/03/16 04:10:27;;;;;;;11.93;4.03;;;5.90;99.90;;;;;;4867648;29;20206;-77
2021/03/16 04:13:13;;;;;;;14.20;3.45;;;5.90;99.90;;;;;;4869323;29;20230;-76
2021/03/16 04:16:00;;;;;;;14.45;3.95;;;6.00;99.90;;;;;;4862921;29;20222;-77
2021/03/16 04:18:48;;;;;;;15.02;3.50;;;5.90;99.90;;;;;;4876766;29;20363;-77
2021/03/16 04:21:33;;;;;;;14.02;4.53;;;5.90;99.90;;;;;;4866729;29;20219;-77
2021/03/16 04:24:20;;;;;;;6.65;3.83;;;5.90;99.90;;;;;;4854847;29;20222;-76
2021/03/16 04:27:06;;;;;;;17.85;4.40;;;5.90;99.90;;;;;;4862811;29;20246;-77
2021/03/16 04:29:52;;;;;;;10.07;5.40;;;5.90;99.90;;;;;;4869776;29;20820;-77
2021/03/16 04:32:37;;;;;;;8.07;3.53;;;5.90;99.90;;;;;;4861267;29;20278;-77
2021/03/16 04:35:22;;;;;;;13.15;3.90;;;5.90;99.90;;;;;;4874930;29;20577;-77
2021/03/16 04:38:07;;;;;;;16.27;3.50;;;5.90;99.90;;;;;;4872090;29;20228;-77
2021/03/16 04:40:52;;;;;;;16.30;4.47;;;5.90;99.90;;;;;;4875637;29;20554;-77
2021/03/16 04:43:41;;;;;;;10.82;3.33;;;5.80;99.90;;;;;;4866999;29;20234;-77
2021/03/16 04:46:27;;;;;;;12.40;4.13;;;5.80;99.90;;;;;;4875129;29;20194;-77
2021/03/16 04:49:12;;;;;;;14.55;3.97;;;5.80;99.90;;;;;;4865163;29;20213;-77
2021/03/16 04:51:56;;;;;;;14.85;4.40;;;5.80;99.90;;;;;;4872097;29;20234;-77
2021/03/16 04:54:42;;;;;;;13.65;3.80;;;5.80;99.90;;;;;;4864356;29;20422;-77
2021/03/16 04:57:27;;;;;;;13.32;3.72;;;5.80;99.90;;;;;;4860956;29;20364;-76
2021/03/16 05:00:14;;;;;;;12.10;5.93;;;5.80;99.90;;;;;;4871711;29;20543;-77
2021/03/16 05:02:59;;;;;;;10.82;3.88;;;5.80;99.90;;;;;;4871336;29;20597;-76
2021/03/16 05:05:44;;;;;;;15.70;5.00;;;5.80;99.90;;;;;;4871425;29;20214;-76
2021/03/16 05:08:31;;;;;;;7.97;3.22;;;5.90;99.90;;;;;;4866587;29;20221;-77
2021/03/16 05:11:16;;;;;;;13.13;4.78;;;5.80;99.90;;;;;;4874244;29;20675;-76
2021/03/16 05:14:02;;;;;;;11.65;4.22;;;5.80;99.90;;;;;;4864024;29;20217;-76
2021/03/16 05:16:47;;;;;;;12.15;4.95;;;5.80;99.90;;;;;;4876801;29;20209;-76
2021/03/16 05:19:32;;;;;;;9.73;3.80;;;5.80;99.90;;;;;;4865827;29;20191;-76
2021/03/16 05:22:17;;;;;;;13.57;4.32;;;5.80;99.90;;;;;;4860734;29;20230;-76
2021/03/16 05:25:05;;;;;;;13.07;4.45;;;5.80;99.90;;;;;;4876822;29;20220;-77
2021/03/16 05:27:50;;;;;;;15.35;4.07;;;5.80;99.90;;;;;;4869864;29;20230;-77
2021/03/16 05:30:35;;;;;;;15.95;3.97;;;5.80;99.90;;;;;;4868438;29;20293;-77
2021/03/16 05:33:21;;;;;;;25.58;4.30;;;5.80;99.90;;;;;;4864519;29;20229;-77
2021/03/16 05:36:06;;;;;;;8.15;4.00;;;5.80;99.90;;;;;;4874577;29;20294;-77
2021/03/16 05:38:51;;;;;;;11.45;4.32;;;5.70;99.90;;;;;;4868667;29;20720;-77
2021/03/16 05:41:37;;;;;;;12.18;4.85;;;5.70;99.90;;;;;;4872571;29;20193;-77
2021/03/16 05:44:22;;;;;;;12.02;4.32;;;5.70;99.90;;;;;;4864424;29;20602;-77
2021/03/16 05:47:07;;;;;;;12.30;3.85;;;5.70;99.90;;;;;;4878061;29;20743;-76
2021/03/16 05:49:57;;;;;;;19.35;5.38;;;5.70;99.90;;;;;;4862214;29;20222;-77
2021/03/16 05:52:42;;;;;;;13.05;4.07;;;5.70;99.90;;;;;;4872086;29;20230;-77
2021/03/16 05:55:28;;;;;;;12.10;3.90;;;5.70;99.90;;;;;;4859935;29;20731;-77
2021/03/16 05:58:13;;;;;;;22.15;5.32;;;5.70;99.90;;;;;;4864134;29;20711;-77
2021/03/16 06:00:58;;;;;;;15.25;4.10;;;5.70;99.90;;;;;;4875206;29;20221;-77
2021/03/16 06:03:47;;;;;;;21.55;5.13;;;5.80;99.90;;;;;;4859747;29;20351;-77
2021/03/16 06:06:32;;;;;;;23.77;4.72;;;5.80;99.90;;;;;;4867045;29;20218;-77
2021/03/16 06:09:17;;;;;;;17.60;5.03;;;5.80;99.90;;;;;;4874095;29;20254;-76
2021/03/16 06:12:03;;;;;;;10.35;3.80;;;5.80;99.90;;;;;;4866518;29;20233;-76
2021/03/16 06:14:54;;;;;;;14.50;4.78;;;5.80;99.90;;;;;;4871685;29;21638;-77
2021/03/16 06:17:47;;;;;;;12.90;4.28;;;5.80;99.90;;;;;;4862909;29;20230;-77
2021/03/16 06:20:34;;;;;;;9.48;4.45;;;5.80;99.90;;;;;;4869623;29;20529;-77
2021/03/16 06:23:19;;;;;;;7.53;3.85;;;5.80;99.90;;;;;;4865835;29;20294;-76
2021/03/16 06:26:13;;;;;;;14.77;4.47;;;5.80;99.90;;;;;;4874988;29;20589;-77
2021/03/16 06:29:09;;;;;;;14.52;4.57;;;5.80;99.90;;;;;;4859770;29;20230;-77
2021/03/16 06:31:54;;;;;;;15.00;4.57;;;5.80;99.90;;;;;;4866017;29;20294;-77
2021/03/16 06:34:39;;;;;;;15.02;4.22;;;5.80;99.90;;;;;;4864585;29;20602;-77
2021/03/16 06:37:25;;;;;;;12.85;4.43;;;5.90;99.90;;;;;;4867967;29;20226;-77
2021/03/16 06:40:10;;;;;;;12.75;4.15;;;5.90;99.90;;;;;;4860482;29;20335;-76
2021/03/16 06:43:07;;;;;;;14.73;4.07;;;5.90;99.90;;;;;;4869654;29;20706;-76
2021/03/16 06:45:53;;;;;;;20.58;5.75;;;6.00;99.90;;;;;;4862516;29;20267;-77
2021/03/16 06:48:39;;;;;;;10.20;4.65;;;6.00;99.90;;;;;;4863425;29;20221;-76
2021/03/16 06:51:29;;;;;;;15.18;5.00;;;6.00;99.90;;;;;;4873942;29;20210;-77
2021/03/16 06:54:17;;;;;;;9.27;4.55;;;6.10;99.90;;;;;;4864049;29;20222;-76
2021/03/16 06:57:02;;;;;;;21.00;5.47;;;6.20;99.90;;;;;;4871367;29;20245;-76
2021/03/16 06:59:47;;;;;;;11.35;4.93;;;6.10;99.90;;;;;;4861913;29;20200;-76
2021/03/16 07:02:33;;;;;;;15.05;4.88;;;6.10;99.90;;;;;;4869717;29;20277;-76
2021/03/16 07:05:26;;;;;;;18.90;5.28;;;6.10;99.90;;;;;;4867233;29;20298;-76
2021/03/16 07:08:14;;;;;;;19.67;4.80;;;6.10;99.90;;;;;;4873550;29;20232;-76
2021/03/16 07:11:03;;;;;;;11.23;5.50;;;6.20;99.90;;;;;;4874322;29;20674;-76
2021/03/16 07:13:50;;;;;;;17.33;4.97;;;6.20;99.90;;;;;;4869131;29;20710;-76
2021/03/16 07:16:36;;;;;;;12.20;6.15;;;6.20;99.90;;;;;;4870646;29;20226;-76
2021/03/16 07:19:22;;;;;;;10.82;5.30;;;6.20;99.90;;;;;;4869519;29;20210;-76
2021/03/16 07:22:12;;;;;;;13.15;5.60;;;6.30;99.90;;;;;;4862998;29;20222;-76
2021/03/16 07:24:58;;;;;;;15.10;6.43;;;6.30;99.90;;;;;;4877110;29;20731;-76
2021/03/16 07:27:44;;;;;;;15.90;6.90;;;6.30;99.90;;;;;;4862123;29;20275;-76
2021/03/16 07:30:50;;;;;;;16.10;7.45;;;6.30;99.90;;;;;;4863541;29;20214;-76
2021/03/16 07:33:37;;;;;;;15.25;6.68;;;6.30;99.90;;;;;;4855008;29;20237;-76
2021/03/16 07:36:23;;;;;;;12.85;7.65;;;6.30;99.90;;;;;;4866314;29;20194;-76
2021/03/16 07:39:10;;;;;;;16.05;7.15;;;6.40;99.90;;;;;;4862271;29;20213;-76
2021/03/16 07:41:55;;;;;;;14.75;7.32;;;6.40;99.90;;;;;;4863363;29;20327;-76
2021/03/16 07:44:44;;;;;;;20.65;8.80;;;6.40;99.90;;;;;;4863707;29;20342;-76
2021/03/16 07:47:36;;;;;;;18.35;8.73;;;6.40;99.90;;;;;;4867065;29;20221;-76
2021/03/16 07:50:32;;;;;;;25.90;7.75;;;6.40;99.90;;;;;;4869809;29;20225;-76
2021/03/16 07:53:26;;;;;;;15.27;8.02;;;6.40;99.90;;;;;;4865762;29;20234;-76
2021/03/16 07:56:13;;;;;;;18.85;7.97;;;6.50;99.90;;;;;;4876987;29;20341;-76
2021/03/16 07:59:00;;;;;;;14.82;6.63;;;6.50;99.90;;;;;;4864176;29;20779;-76
2021/03/16 08:01:49;;;;;;;13.38;6.47;;;6.50;99.90;;;;;;4876548;29;20197;-76
2021/03/16 08:04:41;;;;;;;17.83;6.88;;;6.60;99.90;;;;;;4864634;29;20226;-76
2021/03/16 08:07:30;;;;;;;18.77;5.88;;;6.60;99.90;;;;;;4866246;29;20229;-76
2021/03/16 08:10:29;;;;;;;13.52;5.47;;;6.60;99.90;;;;;;4869470;29;20197;-76
2021/03/16 08:13:19;;;;;;;12.55;7.60;;;6.60;99.90;;;;;;4862074;29;20226;-76
2021/03/16 08:16:17;;;;;;;10.55;7.00;;;6.60;99.90;;;;;;4865603;29;20213;-76
2021/03/16 08:19:14;;;;;;;14.25;7.15;;;6.50;99.90;;;;;;4876789;29;20237;-76
2021/03/16 08:22:00;;;;;;;13.43;7.80;;;6.50;99.90;;;;;;4867140;29;20375;-76
2021/03/16 08:24:52;;;;;;;13.43;6.22;;;6.50;99.90;;;;;;4861941;29;20574;-78
2021/03/16 08:27:39;;;;;;;17.73;7.85;;;6.60;99.90;;;;;;4873645;29;20255;-78
2021/03/16 08:30:25;;;;;;;19.17;7.32;;;6.60;99.90;;;;;;4866913;29;20286;-78
2021/03/16 08:33:15;;;;;;;13.80;7.20;;;6.50;99.90;;;;;;4861179;29;20301;-78
2021/03/16 08:36:05;;;;;;;13.05;7.40;;;6.50;99.90;;;;;;4857285;29;20651;-77
2021/03/16 08:38:52;;;;;;;25.17;8.40;;;6.60;99.90;;;;;;4863700;29;20222;-77
2021/03/16 08:41:37;;;;;;;18.95;7.20;;;6.60;99.90;;;;;;4879294;29;20224;-78
2021/03/16 08:44:27;;;;;;;16.15;6.85;;;6.70;99.90;;;;;;4866242;29;20246;-77
2021/03/16 08:47:15;;;;;;;11.02;6.05;;;6.90;99.90;;;;;;4856448;29;20740;-77
2021/03/16 08:50:03;;;;;;;14.07;7.78;;;7.10;99.90;;;;;;4865135;29;20213;-77
2021/03/16 08:52:47;;;;;;;8.05;4.35;;;7.10;99.90;;;;;;4867366;29;20601;-76
2021/03/16 08:55:32;;;;;;;15.40;4.93;;;7.20;99.90;;;;;;4875407;29;20373;-77
2021/03/16 08:58:19;;;;;;;12.55;5.72;;;7.20;99.90;;;;;;4861375;29;20230;-77
2021/03/16 09:01:04;;;;;;;11.88;4.85;;;7.20;99.90;;;;;;4864144;29;20198;-77
2021/03/16 09:03:51;;;;;;;8.80;4.43;;;7.30;99.90;;;;;;4862689;29;20318;-76
2021/03/16 09:06:38;;;;;;;11.23;5.00;;;7.20;99.90;;;;;;4867631;29;20214;-76
2021/03/16 09:09:31;;;;;;;5.30;3.65;;;7.30;99.90;;;;;;4859648;29;20327;-76
2021/03/16 09:12:27;;;;;;;10.32;4.32;;;7.30;99.90;;;;;;4876341;29;20226;-76
2021/03/16 09:15:13;;;;;;;14.77;5.25;;;7.20;99.90;;;;;;4875065;29;20286;-76
2021/03/16 09:18:00;;;;;;;9.30;5.07;;;7.10;99.90;;;;;;4867667;29;20259;-77
2021/03/16 09:20:46;;;;;;;8.98;4.60;;;7.10;99.90;;;;;;4867320;29;20205;-76
2021/03/16 09:23:34;;;;;;;8.90;4.20;;;7.20;99.90;;;;;;4878240;29;20294;-76
2021/03/16 09:26:27;;;;;;;11.13;5.35;;;7.20;99.90;;;;;;4864560;29;20218;-76
2021/03/16 09:29:16;;;;;;;20.77;5.35;;;7.10;99.90;;;;;;4875759;29;20217;-76
2021/03/16 09:32:07;;;;;;;9.20;4.80;;;7.20;99.90;;;;;;4869686;29;20247;-76
2021/03/16 09:34:53;;;;;;;12.65;4.80;;;7.20;99.90;;;;;;4875453;29;20589;-76
2021/03/16 09:37:43;;;;;;;7.82;4.88;;;7.30;99.90;;;;;;4872436;29;20372;-76
2021/03/16 09:40:44;;;;;;;10.70;4.57;;;7.30;99.90;;;;;;4849385;29;20190;-76
2021/03/16 09:43:36;;;;;;;9.75;5.22;;;7.30;99.90;;;;;;4864707;29;20233;-76
2021/03/16 09:46:08;;;;;;;11.23;4.70;;;7.30;99.90;;;;;;4874263;29;20274;-76
2021/03/16 09:48:39;;;;;;;12.05;4.80;;;7.40;99.90;;;;;;4866107;29;20309;-76
2021/03/16 09:51:12;;;;;;;16.20;5.18;;;7.50;99.90;;;;;;4867859;29;20195;-76
2021/03/16 09:53:57;;;;;;;15.40;5.07;;;7.40;99.90;;;;;;4856309;29;20566;-76
2021/03/16 09:56:28;;;;;;;15.98;5.10;;;7.40;99.90;;;;;;4865822;29;20198;-76
2021/03/16 09:58:59;;;;;;;8.55;5.63;;;7.40;99.90;;;;;;4861300;29;20226;-76
2021/03/16 10:01:26;;;;;;;9.13;6.28;;;7.50;99.90;;;;;;4862403;29;20191;-76
2021/03/16 10:04:00;;;;;;;10.90;5.97;;;7.50;99.90;;;;;;4876079;29;20222;-76
2021/03/16 10:06:38;;;;;;;14.15;4.60;;;7.40;99.90;;;;;;4848188;29;20217;-76
2021/03/16 10:09:14;;;;;;;11.30;5.18;;;7.40;99.90;;;;;;4870118;29;20210;-76
2021/03/16 10:11:44;;;;;;;12.90;5.30;;;7.40;99.90;;;;;;4870863;29;20198;-76
2021/03/16 10:14:14;;;;;;;8.95;4.50;;;7.40;99.90;;;;;;4864847;29;20211;-76
2021/03/16 10:16:40;;;;;;;9.68;5.07;;;7.50;99.90;;;;;;4871940;29;20243;-76
2021/03/16 10:19:07;;;;;;;10.27;5.05;;;7.50;99.90;;;;;;4866605;29;20213;-76
2021/03/16 10:21:35;;;;;;;11.38;6.15;;;7.50;99.90;;;;;;4867449;29;20286;-76
2021/03/16 10:24:05;;;;;;;15.40;5.25;;;7.50;99.90;;;;;;4860085;29;20199;-76
2021/03/16 10:26:33;;;;;;;8.02;4.85;;;7.50;99.90;;;;;;4866582;29;20186;-76
2021/03/16 10:29:13;;;;;;;9.70;4.90;;;7.40;99.90;;;;;;4858569;29;20199;-77
2021/03/16 10:31:39;;;;;;;13.05;5.40;;;7.30;99.90;;;;;;4862766;29;20191;-78
2021/03/16 10:34:07;;;;;;;12.60;5.82;;;7.20;99.90;;;;;;4866646;29;20226;-78
2021/03/16 10:36:36;;;;;;;10.13;5.65;;;7.10;99.90;;;;;;4871132;29;20277;-78
2021/03/16 10:39:04;;;;;;;15.50;5.55;;;7.10;99.90;;;;;;4874951;29;20279;-77
2021/03/16 10:41:31;;;;;;;12.48;6.03;;;7.10;99.90;;;;;;4862836;29;20186;-78
2021/03/16 10:43:57;;;;;;;11.38;6.07;;;7.00;99.90;;;;;;4846937;29;20670;-78
2021/03/16 10:46:24;;;;;;;9.88;5.45;;;7.00;99.90;;;;;;4860764;29;20195;-78
2021/03/16 10:48:54;;;;;;;12.85;5.32;;;7.00;99.90;;;;;;4859732;29;20227;-78
2021/03/16 10:51:21;;;;;;;9.05;4.70;;;7.00;99.90;;;;;;4877798;29;20195;-78
2021/03/16 10:53:47;;;;;;;7.00;4.72;;;7.00;99.90;;;;;;4844199;29;20234;-79
2021/03/16 10:56:14;;;;;;;4.95;2.30;;;6.90;99.90;;;;;;4874850;29;20187;-78
2021/03/16 10:58:41;;;;;;;5.53;3.40;;;6.70;99.90;;;;;;4853253;29;20297;-79
2021/03/16 11:01:07;;;;;;;4.88;2.50;;;6.70;99.90;;;;;;4860215;29;20638;-78
2021/03/16 11:03:34;;;;;;;5.85;2.50;;;6.50;99.90;;;;;;4863763;29;20593;-78
2021/03/16 11:06:02;;;;;;;5.25;2.90;;;6.50;99.90;;;;;;4867263;29;20221;-78
2021/03/16 11:08:30;;;;;;;7.43;2.10;;;6.50;99.90;;;;;;4860427;29;20293;-78
2021/03/16 11:10:56;;;;;;;6.80;3.33;;;6.40;99.90;;;;;;4867372;29;20208;-78
2021/03/16 11:13:25;;;;;;;6.72;3.30;;;6.50;99.90;;;;;;4861277;29;20233;-78
2021/03/16 11:15:51;;;;;;;3.75;2.83;;;6.50;99.90;;;;;;4860423;29;20271;-78
2021/03/16 11:18:18;;;;;;;6.95;2.92;;;6.60;99.90;;;;;;4862606;29;20290;-78
2021/03/16 11:20:46;;;;;;;14.80;3.55;;;6.60;99.90;;;;;;4871414;29;20719;-77
2021/03/16 11:23:13;;;;;;;7.00;4.03;;;6.70;99.90;;;;;;4876170;29;20221;-77
2021/03/16 11:25:39;;;;;;;9.35;3.30;;;6.80;99.90;;;;;;4868892;29;20271;-78
2021/03/16 11:28:06;;;;;;;8.20;4.15;;;6.90;99.90;;;;;;4860537;29;20301;-77
2021/03/16 11:30:33;;;;;;;10.55;4.22;;;7.00;99.90;;;;;;4859527;29;20191;-77
2021/03/16 11:33:00;;;;;;;5.65;3.78;;;7.10;99.90;;;;;;4868157;29;20231;-77
2021/03/16 11:35:45;;;;;;;8.07;4.80;;;7.20;99.90;;;;;;4869076;29;20586;-77
2021/03/16 11:38:30;;;;;;;12.48;4.75;;;7.30;99.90;;;;;;4864932;29;20217;-77
2021/03/16 11:41:15;;;;;;;9.43;4.55;;;7.50;99.90;;;;;;4877411;29;20202;-77
2021/03/16 11:44:01;;;;;;;11.05;4.50;;;7.60;99.90;;;;;;4864302;29;20309;-77
2021/03/16 11:46:45;;;;;;;9.93;4.70;;;7.70;99.90;;;;;;4861427;29;20203;-77
2021/03/16 11:49:31;;;;;;;12.95;4.97;;;7.80;99.90;;;;;;4872169;29;20213;-77
2021/03/16 11:52:16;;;;;;;9.40;4.80;;;7.80;99.90;;;;;;4866594;29;20657;-78
2021/03/16 11:55:03;;;;;;;12.50;6.00;;;7.90;99.90;;;;;;4857538;29;20594;-77
2021/03/16 11:57:48;;;;;;;16.83;5.95;;;8.10;99.90;;;;;;4871966;29;20590;-76
2021/03/16 12:00:33;;;;;;;14.43;5.10;;;8.20;99.90;;;;;;4876244;29;20269;-77
2021/03/16 12:03:18;;;;;;;9.10;4.80;;;8.30;99.90;;;;;;4861997;29;20724;-77
2021/03/16 12:06:06;;;;;;;11.30;4.72;;;8.30;99.90;;;;;;4869356;29;20307;-77
2021/03/16 12:08:52;;;;;;;9.15;4.47;;;8.40;99.90;;;;;;4870107;29;20245;-77
2021/03/16 12:11:38;;;;;;;7.55;5.18;;;8.40;99.90;;;;;;4873150;29;20207;-77
2021/03/16 12:14:23;;;;;;;9.95;4.47;;;8.30;99.90;;;;;;4874562;29;20232;-76
2021/03/16 12:17:12;;;;;;;9.20;4.90;;;8.20;99.90;;;;;;4880279;29;20225;-76
2021/03/16 12:19:58;;;;;;;9.68;5.47;;;8.20;99.90;;;;;;4864612;29;20340;-77
2021/03/16 12:22:44;;;;;;;11.85;6.05;;;8.10;99.90;;;;;;4875601;29;20222;-76
2021/03/16 12:25:30;;;;;;;8.65;5.32;;;8.10;99.90;;;;;;4866564;29;20237;-76
2021/03/16 12:28:16;;;;;;;9.88;4.68;;;8.00;99.90;;;;;;4878040;29;20222;-77
2021/03/16 12:31:01;;;;;;;9.40;5.35;;;8.00;99.90;;;;;;4870736;29;20271;-77
2021/03/16 12:33:46;;;;;;;8.00;4.82;;;7.90;99.90;;;;;;4876153;29;20229;-76
2021/03/16 12:36:32;;;;;;;6.63;4.28;;;7.80;99.90;;;;;;4865842;29;20201;-76
2021/03/16 12:39:17;;;;;;;10.15;4.05;;;7.80;99.90;;;;;;4866998;29;20335;-77
2021/03/16 12:42:03;;;;;;;4.35;2.75;;;7.70;99.90;;;;;;4859456;29;20310;-76
2021/03/16 12:44:48;;;;;;;4.32;2.80;;;7.60;99.90;;;;;;4869954;29;20614;-76
2021/03/16 12:47:34;;;;;;;7.75;3.10;;;7.50;99.90;;;;;;4864574;29;20224;-76
2021/03/16 12:50:19;;;;;;;3.42;2.10;;;7.50;99.90;;;;;;4877552;29;20570;-76
2021/03/16 12:53:07;;;;;;;8.73;1.90;;;7.40;99.90;;;;;;4869887;29;20728;-76
2021/03/16 12:55:52;;;;;;;3.42;2.05;;;7.50;99.90;;;;;;4869150;29;20245;-77
2021/03/16 12:58:37;;;;;;;5.60;2.30;;;7.60;99.90;;;;;;4858024;29;20230;-76
2021/03/16 13:01:22;;;;;;;6.38;2.65;;;7.60;99.90;;;;;;4861663;29;20212;-76
2021/03/16 13:04:08;;;;;;;4.45;1.98;;;7.70;99.90;;;;;;4877588;29;20313;-77
2021/03/16 13:06:54;;;;;;;4.35;1.75;;;7.80;99.90;;;;;;4876019;29;20282;-77
2021/03/16 13:09:39;;;;;;;2.42;1.65;;;7.80;99.90;;;;;;4860726;29;20202;-76
2021/03/16 13:12:25;;;;;;;3.95;1.95;;;7.80;99.90;;;;;;4860948;29;20254;-76
2021/03/16 13:15:10;;;;;;;3.30;1.60;;;7.80;99.90;;;;;;4878425;29;20270;-77
2021/03/16 13:17:56;;;;;;;4.15;1.50;;;7.90;99.90;;;;;;4861896;29;20226;-76
2021/03/16 13:20:42;;;;;;;3.65;2.10;;;7.90;99.90;;;;;;4879047;29;20321;-76
2021/03/16 13:23:27;;;;;;;3.60;1.60;;;8.00;99.90;;;;;;4877606;29;20343;-76
2021/03/16 13:26:12;;;;;;;4.63;2.03;;;8.00;99.90;;;;;;4876148;29;20213;-77
2021/03/16 13:28:57;;;;;;;4.13;1.80;;;8.10;99.90;;;;;;4862072;29;20299;-76
2021/03/16 13:31:42;;;;;;;3.17;1.50;;;8.10;99.90;;;;;;4867888;29;20670;-76
2021/03/16 13:34:28;;;;;;;3.53;1.60;;;8.10;99.90;;;;;;4868544;29;20232;-76
2021/03/16 13:37:16;;;;;;;2.28;1.55;;;7.90;99.90;;;;;;4863814;29;20216;-76
2021/03/16 13:40:01;;;;;;;2.28;1.55;;;8.10;99.90;;;;;;4870911;29;20278;-76
2021/03/16 13:42:50;;;;;;;2.05;1.00;;;8.10;99.90;;;;;;4861975;29;20221;-76
2021/03/16 13:45:35;;;;;;;1.23;1.13;;;8.10;99.90;;;;;;4873397;29;20217;-76
2021/03/16 13:48:21;;;;;;;2.92;1.70;;;8.10;99.90;;;;;;4872068;29;20225;-76
2021/03/16 13:51:07;;;;;;;2.38;1.40;;;8.20;99.90;;;;;;4867656;29;20389;-76
2021/03/16 13:53:52;;;;;;;1.75;1.38;;;8.20;99.90;;;;;;4859672;29;20225;-76
2021/03/16 13:56:37;;;;;;;2.97;1.50;;;8.20;99.90;;;;;;4859457;29;20207;-76
2021/03/16 13:59:22;;;;;;;2.67;1.92;;;8.10;99.90;;;;;;4861624;29;20798;-76
2021/03/16 14:02:07;;;;;;;3.33;2.00;;;8.10;99.90;;;;;;4870248;29;20236;-76
2021/03/16 14:04:53;;;;;;;2.13;1.92;;;8.10;99.90;;;;;;4877528;29;20321;-76
2021/03/16 14:07:38;;;;;;;1.88;1.75;;;8.10;99.90;;;;;;4856685;29;20233;-76